Jump to content

  •  

SKYWEST AIRLINES FLIGHT OO4539 FLOWN ON 09-30-2015 BY CAPTAIN DEREK ROGY

Pilot StatsCaptain Derek Rogy (LDP86) • 1,506.2 total hours • 807 total flights [View Logbook]
FLIGHT DETAILS
StatusReceived and approved on 2017-10-09 at 13:10:18
Origin AirportTucson Intl (KTUS) • Tucson, Arizona, United States (2,642 feet MSL)
Filed Flight PlanFLIGHT PLANNER OFFLINE
Destination AirportSalt Lake City Intl (KSLC) • Salt Lake City, Utah, United States (4,226 feet MSL)
Alternate AirportNone Filed
AirlineSkywest Airlines
AircraftBombardier CRJ-700 (CR7 / CRJ-700)
FS Aircraft UsedCRJ700ER Delta Airways N367CA
Cruising AltitudeFL360
Distance Flown523 nautical miles
Passengers Onboard32 passengers (45.71% full)
DEPARTURE DETAILS
Time Out06:49:58
Taxi Data62,910 lbs total with 11,293 lbs of fuel onboard
Takeoff Data07:01:55 (12 minutes after leaving gate/ramp) • 62,597 lbs total • 10° pitch at 133 knots
Departure METARKTUS 091453Z 10007KT 10SM CLR 22/04 A2994 RMK AO2 SLP096 T02220039 53023
ARRIVAL DETAILS
Landing Data09:36:03 • 57,320 lbs total • 2° pitch doing 120 knots at a rate of -128.41 feet/minute with 5,654 lbs of fuel onboard
Time In09:40:12 (4 minutes after landing)
Ramp Weight57,218 lbs total
Total Fuel Used5,639 lbs
Total Block Time01:50:10 (1.8 hours) while 16 minutes were spent on the ground
Arrival METARKSLC 091654Z 31010KT 10SM FEW050 09/M02 A3031 RMK AO2 SLP255 T00941022 $
MISCELLANEOUS DETAILS
LiveDISPATCH Version4.8.3.1
FS Version
FSUIPC Version4.95
OS VersionWindows 7 32-bit
Screen Resolution1920 x 1200
Pilot's CommentsNo Comments Reported
FLIGHT MAP